createdAt,value
2019-06-10T00:00:13.444Z,93.20
2019-06-10T00:02:37.823Z,93.50
2019-06-10T00:05:07.176Z,93.90
2019-06-10T00:07:55.809Z,93.40
2019-06-10T00:10:23.232Z,93.60
2019-06-10T00:12:51.415Z,93.50
2019-06-10T00:15:21.351Z,93.80
2019-06-10T00:18:01.256Z,93.30
2019-06-10T00:20:18.193Z,93.40
2019-06-10T00:22:45.549Z,93.40
2019-06-10T00:25:12.985Z,93.40
2019-06-10T00:28:02.304Z,93.70
2019-06-10T00:30:31.267Z,93.70
2019-06-10T00:32:58.614Z,93.40
2019-06-10T00:35:26.446Z,93.90
2019-06-10T00:37:54.197Z,93.70
2019-06-10T00:40:21.636Z,93.60
2019-06-10T00:42:50.746Z,93.60
2019-06-10T00:45:21.434Z,93.60
2019-06-10T00:47:47.612Z,93.60
2019-06-10T00:50:15.349Z,93.60
2019-06-10T00:52:45.275Z,93.40
2019-06-10T00:55:13.849Z,93.40
2019-06-10T00:58:02.619Z,93.70
2019-06-10T01:00:31.763Z,93.70
2019-06-10T01:03:01.084Z,94.10
2019-06-10T01:05:30.938Z,93.50
2019-06-10T01:07:58.271Z,93.70
2019-06-10T01:10:25.616Z,94.00
2019-06-10T01:13:15.357Z,94.20
2019-06-10T01:15:41.922Z,94.00
2019-06-10T01:18:30.510Z,93.70
2019-06-10T01:20:41.217Z,93.50
2019-06-10T01:23:09.806Z,93.80
2019-06-10T01:25:57.324Z,94.20
2019-06-10T01:28:24.586Z,94.00
2019-06-10T01:30:51.884Z,93.70
2019-06-10T01:33:21.245Z,93.60
2019-06-10T01:35:51.302Z,94.20
2019-06-10T01:38:18.389Z,93.90
2019-06-10T01:40:46.427Z,93.50
2019-06-10T01:43:16.769Z,93.50
2019-06-10T01:45:42.717Z,93.60
2019-06-10T01:48:12.033Z,94.20
2019-06-10T01:50:40.615Z,93.90
2019-06-10T01:53:09.330Z,94.00
2019-06-10T01:55:37.620Z,93.70
2019-06-10T01:58:04.978Z,94.00
2019-06-10T02:00:41.814Z,93.90
2019-06-10T02:03:13.290Z,93.40
2019-06-10T02:05:41.740Z,93.50
2019-06-10T02:08:08.714Z,93.60
2019-06-10T02:10:37.312Z,93.80
2019-06-10T02:13:06.521Z,93.80
2019-06-10T02:15:34.350Z,93.70
2019-06-10T02:18:01.645Z,93.80
2019-06-10T02:20:31.631Z,94.10
2019-06-10T02:22:58.577Z,93.70
2019-06-10T02:25:25.898Z,93.70
2019-06-10T02:27:53.354Z,93.70
2019-06-10T02:30:38.642Z,93.90
2019-06-10T02:32:52.371Z,93.40
2019-06-10T02:35:44.303Z,93.70
2019-06-10T02:38:09.821Z,93.60
2019-06-10T02:40:56.732Z,94.00
2019-06-10T02:43:32.006Z,94.20
2019-06-10T02:45:55.133Z,94.30
2019-06-10T02:48:43.588Z,94.10
2019-06-10T02:51:14.770Z,93.90
2019-06-10T02:53:43.465Z,94.40
2019-06-10T02:56:09.680Z,94.20
2019-06-10T02:58:39.505Z,94.10
2019-06-10T03:01:06.755Z,94.60
2019-06-10T03:03:42.815Z,94.20
2019-06-10T03:06:07.086Z,94.30
2019-06-10T03:08:36.314Z,94.40
2019-06-10T03:11:03.714Z,94.70
2019-06-10T03:13:33.197Z,94.70
2019-06-10T03:16:13.026Z,94.40
2019-06-10T03:18:43.010Z,94.10
2019-06-10T03:21:12.233Z,94.30
2019-06-10T03:23:38.961Z,94.20
2019-06-10T03:26:06.139Z,94.20
2019-06-10T03:28:33.299Z,94.40
2019-06-10T03:31:04.912Z,94.30
2019-06-10T03:33:39.398Z,94.50
2019-06-10T03:35:59.423Z,94.50
2019-06-10T03:38:28.226Z,94.00
2019-06-10T03:40:55.717Z,94.60
2019-06-10T03:43:23.786Z,94.80
2019-06-10T03:45:53.132Z,94.40
2019-06-10T03:48:40.205Z,95.10
2019-06-10T03:51:21.834Z,94.50
2019-06-10T03:53:50.289Z,94.40
2019-06-10T03:56:19.074Z,94.50
2019-06-10T03:59:06.438Z,94.60
2019-06-10T04:01:33.768Z,94.60
2019-06-10T04:04:02.372Z,94.60
2019-06-10T04:06:33.535Z,94.50
2019-06-10T04:08:59.859Z,95.10
2019-06-10T04:11:28.772Z,95.20
2019-06-10T04:14:17.517Z,94.90
2019-06-10T04:16:44.921Z,95.00
2019-06-10T04:19:13.209Z,94.90
2019-06-10T04:21:43.040Z,94.70
2019-06-10T04:24:12.656Z,94.70
2019-06-10T04:26:39.227Z,95.00
2019-06-10T04:29:06.444Z,95.10
2019-06-10T04:31:34.128Z,94.90
2019-06-10T04:34:03.251Z,95.10
2019-06-10T04:36:33.258Z,94.90
2019-06-10T04:39:00.301Z,95.20
2019-06-10T04:41:28.061Z,94.90
2019-06-10T04:43:56.739Z,94.90
2019-06-10T04:46:26.235Z,95.20
2019-06-10T04:48:53.712Z,95.20
2019-06-10T04:51:23.377Z,94.70
2019-06-10T04:53:52.487Z,94.80
2019-06-10T04:56:19.709Z,95.10
2019-06-10T04:58:47.675Z,95.10
2019-06-10T05:01:34.595Z,95.00
2019-06-10T05:04:03.191Z,95.00
2019-06-10T05:06:32.627Z,95.60
2019-06-10T05:09:00.381Z,95.40
2019-06-10T05:11:28.940Z,94.60
2019-06-10T05:14:16.850Z,95.30
2019-06-10T05:19:32.973Z,95.50
2019-06-10T05:21:59.653Z,95.10
2019-06-10T05:24:29.554Z,95.30
2019-06-10T05:26:56.749Z,94.90
2019-06-10T05:29:26.847Z,95.00
2019-06-10T05:31:53.359Z,94.90
2019-06-10T05:34:23.597Z,95.00
2019-06-10T05:36:52.432Z,95.10
2019-06-10T05:39:19.080Z,95.10
2019-06-10T05:41:49.977Z,95.00
2019-06-10T05:44:15.910Z,94.70
2019-06-10T05:46:43.693Z,94.80
2019-06-10T05:49:12.551Z,95.00
2019-06-10T05:51:42.103Z,94.80
2019-06-10T05:54:09.552Z,94.70
2019-06-10T05:56:37.292Z,94.80
2019-06-10T05:59:04.655Z,94.70
2019-06-10T06:01:36.393Z,94.80
2019-06-10T06:04:03.221Z,94.70
2019-06-10T06:06:33.451Z,94.90
2019-06-10T06:08:59.482Z,94.60
2019-06-10T06:11:27.321Z,94.50
2019-06-10T06:14:14.308Z,94.40
2019-06-10T06:16:43.202Z,94.40
2019-06-10T06:19:12.583Z,94.40
2019-06-10T06:21:44.727Z,94.40
2019-06-10T06:24:09.348Z,94.40
2019-06-10T06:26:38.385Z,94.30
2019-06-10T06:29:05.932Z,94.30
2019-06-10T06:31:36.077Z,94.30
2019-06-10T06:34:22.609Z,94.20
2019-06-10T06:36:52.819Z,94.30
2019-06-10T06:39:42.752Z,94.30
2019-06-10T06:42:09.587Z,94.50
2019-06-10T06:44:46.137Z,94.50
2019-06-10T06:47:13.514Z,94.40
2019-06-10T06:49:42.567Z,94.40
2019-06-10T06:52:09.997Z,94.60
2019-06-10T06:54:38.141Z,94.40
2019-06-10T06:57:06.409Z,94.70
2019-06-10T06:59:34.323Z,94.40
2019-06-10T07:02:03.099Z,94.40
2019-06-10T07:04:37.494Z,94.70
2019-06-10T07:07:05.395Z,94.90
2019-06-10T07:09:35.801Z,94.50
2019-06-10T07:12:03.627Z,94.50
2019-06-10T07:14:33.725Z,94.40
2019-06-10T07:17:03.752Z,94.60
2019-06-10T07:19:29.765Z,94.40
2019-06-10T07:22:08.277Z,94.70
2019-06-10T07:24:26.844Z,94.70
2019-06-10T07:26:54.987Z,94.70
2019-06-10T07:32:09.515Z,94.70
2019-06-10T07:34:38.845Z,94.50
2019-06-10T07:37:06.872Z,94.50
2019-06-10T07:39:36.438Z,94.40
2019-06-10T07:42:03.500Z,94.30
2019-06-10T07:44:33.401Z,94.40
2019-06-10T07:47:02.625Z,94.40
2019-06-10T07:49:32.149Z,94.60
2019-06-10T07:52:12.155Z,94.40
2019-06-10T07:54:33.248Z,94.50
2019-06-10T07:57:02.409Z,94.50
2019-06-10T07:59:32.243Z,94.30
2019-06-10T08:01:59.571Z,94.50
2019-06-10T08:04:27.385Z,94.10
2019-06-10T08:06:55.232Z,94.60
2019-06-10T08:09:22.852Z,94.50
2019-06-10T08:11:50.313Z,94.50
2019-06-10T08:14:18.118Z,94.20
2019-06-10T08:16:46.808Z,94.30
2019-06-10T08:19:30.041Z,94.10
2019-06-10T08:21:46.157Z,94.10
2019-06-10T08:24:13.430Z,93.80
2019-06-10T08:26:43.707Z,94.00
2019-06-10T08:29:12.700Z,94.40
2019-06-10T08:31:43.523Z,93.90
2019-06-10T08:34:13.001Z,94.00
2019-06-10T08:36:46.049Z,93.90
2019-06-10T08:39:12.014Z,93.80
2019-06-10T08:41:38.861Z,93.70
2019-06-10T08:44:06.201Z,93.70
2019-06-10T08:46:33.589Z,93.40
2019-06-10T08:49:03.176Z,93.10
2019-06-10T08:51:32.445Z,92.90
2019-06-10T08:54:02.247Z,93.30
2019-06-10T08:56:29.701Z,93.30
2019-06-10T08:58:57.430Z,93.00
2019-06-10T09:01:25.131Z,92.50
2019-06-10T09:03:53.696Z,93.10
2019-06-10T09:06:23.107Z,92.50
2019-06-10T09:08:53.865Z,92.90
2019-06-10T09:11:23.020Z,92.70
2019-06-10T09:13:50.441Z,92.30
2019-06-10T09:16:19.587Z,92.10
2019-06-10T09:18:49.583Z,92.60
2019-06-10T09:21:16.493Z,92.20
2019-06-10T09:23:48.320Z,92.40
2019-06-10T09:26:13.490Z,92.80
2019-06-10T09:28:45.043Z,93.10
2019-06-10T09:31:10.618Z,92.40
2019-06-10T09:33:38.084Z,92.50
2019-06-10T09:36:05.364Z,92.70
2019-06-10T09:38:33.332Z,92.30
2019-06-10T09:41:05.850Z,92.60
2019-06-10T09:43:33.230Z,92.30
2019-06-10T09:45:59.975Z,92.40
2019-06-10T09:48:27.572Z,92.30
2019-06-10T09:50:58.697Z,92.10
2019-06-10T09:53:33.864Z,92.50
2019-06-10T09:55:55.638Z,92.10
2019-06-10T09:58:23.156Z,92.10
2019-06-10T10:00:57.239Z,92.20
2019-06-10T10:03:41.850Z,92.10
2019-06-10T10:06:15.312Z,92.20
2019-06-10T10:08:39.410Z,92.20
2019-06-10T10:11:28.649Z,92.30
2019-06-10T10:14:10.826Z,92.30
2019-06-10T10:16:38.586Z,92.00
2019-06-10T10:19:05.889Z,92.20
2019-06-10T10:21:58.213Z,92.20
2019-06-10T10:24:23.022Z,92.50
2019-06-10T10:26:53.425Z,92.70
2019-06-10T10:29:20.528Z,92.00
2019-06-10T10:31:50.738Z,92.00
2019-06-10T10:34:17.770Z,92.10
2019-06-10T10:37:04.926Z,91.90
2019-06-10T10:39:32.842Z,91.80
2019-06-10T10:42:00.376Z,92.20
2019-06-10T10:44:27.788Z,92.10
2019-06-10T10:47:14.766Z,92.30
2019-06-10T10:49:42.848Z,92.40
2019-06-10T10:52:29.976Z,92.30
2019-06-10T10:54:57.903Z,92.10
2019-06-10T10:57:25.365Z,91.80
2019-06-10T10:59:55.925Z,91.70
2019-06-10T11:02:22.726Z,92.10
2019-06-10T11:04:53.344Z,91.80
2019-06-10T11:07:21.772Z,91.70
2019-06-10T11:09:50.418Z,91.90
2019-06-10T11:12:18.581Z,92.00
2019-06-10T11:14:47.001Z,91.40
2019-06-10T11:17:34.542Z,92.00
2019-06-10T11:20:03.819Z,91.80
2019-06-10T11:22:32.825Z,91.40
2019-06-10T11:25:00.300Z,91.40
2019-06-10T11:27:48.413Z,91.30
2019-06-10T11:30:16.231Z,91.40
2019-06-10T11:32:43.580Z,91.80
2019-06-10T11:35:12.200Z,91.40
2019-06-10T11:37:42.086Z,91.50
2019-06-10T11:40:08.991Z,91.80
2019-06-10T11:42:36.401Z,91.80
2019-06-10T11:45:04.680Z,92.00
2019-06-10T11:47:32.985Z,92.10
2019-06-10T11:50:03.285Z,91.90
2019-06-10T11:52:29.788Z,92.10
2019-06-10T11:55:09.184Z,92.10
2019-06-10T11:57:45.860Z,92.30
2019-06-10T12:00:17.151Z,92.10
2019-06-10T12:02:43.038Z,92.10
2019-06-10T12:05:13.075Z,92.10
2019-06-10T12:07:42.554Z,91.50
2019-06-10T12:10:28.710Z,92.00
2019-06-10T12:12:58.928Z,91.70
2019-06-10T12:15:25.696Z,91.90
2019-06-10T12:18:01.830Z,92.20
2019-06-10T12:20:42.771Z,91.70
2019-06-10T12:23:12.508Z,91.80
2019-06-10T12:25:39.927Z,91.90
2019-06-10T12:28:07.951Z,91.90
2019-06-10T12:30:44.284Z,92.00
2019-06-10T12:33:33.594Z,92.00
2019-06-10T12:38:44.833Z,92.20
2019-06-10T12:41:14.041Z,91.80
2019-06-10T12:43:43.289Z,92.00
2019-06-10T12:46:12.746Z,92.20
2019-06-10T12:48:42.610Z,92.00
2019-06-10T12:51:09.870Z,92.00
2019-06-10T12:53:43.229Z,91.90
2019-06-10T12:56:12.217Z,92.20
2019-06-10T12:58:39.254Z,92.40
2019-06-10T13:01:08.066Z,92.90
2019-06-10T13:03:35.787Z,92.50
2019-06-10T13:06:07.325Z,93.70
2019-06-10T13:08:33.976Z,93.80
2019-06-10T13:11:02.086Z,94.50
2019-06-10T13:13:30.123Z,94.40
2019-06-10T13:15:58.117Z,94.60
2019-06-10T13:18:25.577Z,94.90
2019-06-10T13:20:54.007Z,94.60
2019-06-10T13:23:30.468Z,95.10
2019-06-10T13:25:57.979Z,94.80
2019-06-10T13:28:22.383Z,95.00
2019-06-10T13:30:50.268Z,94.90
2019-06-10T13:33:17.843Z,95.00
2019-06-10T13:35:45.190Z,95.20
2019-06-10T13:38:12.619Z,95.10
2019-06-10T13:40:40.009Z,95.30
2019-06-10T13:43:08.069Z,95.30
2019-06-10T13:45:55.401Z,95.40
2019-06-10T13:48:36.237Z,95.10
2019-06-10T13:51:08.298Z,94.90
2019-06-10T13:53:32.562Z,94.90
2019-06-10T13:56:21.990Z,95.30
2019-06-10T13:58:29.577Z,94.90
2019-06-10T14:00:57.007Z,95.30
2019-06-10T14:03:24.941Z,95.00
2019-06-10T14:05:57.754Z,95.10
2019-06-10T14:08:23.347Z,95.00
2019-06-10T14:10:50.375Z,94.70
2019-06-10T14:13:37.260Z,94.70
2019-06-10T14:16:23.925Z,95.00
2019-06-10T14:19:09.357Z,94.60
2019-06-10T14:21:37.621Z,94.70
2019-06-10T14:24:06.235Z,94.50
2019-06-10T14:26:40.538Z,94.60
2019-06-10T14:29:04.176Z,94.50
2019-06-10T14:31:40.453Z,94.50
2019-06-10T14:34:03.755Z,94.50
2019-06-10T14:36:32.549Z,94.70
2019-06-10T14:38:59.585Z,94.50
2019-06-10T14:41:46.320Z,94.50
2019-06-10T14:44:33.451Z,94.30
2019-06-10T14:47:02.819Z,94.30
2019-06-10T14:49:29.836Z,94.50
2019-06-10T14:51:57.695Z,94.50
2019-06-10T14:54:25.138Z,94.30
2019-06-10T14:56:56.924Z,94.40
2019-06-10T14:59:22.472Z,94.40
2019-06-10T15:01:52.010Z,94.50
2019-06-10T15:04:19.697Z,94.60
2019-06-10T15:06:47.015Z,94.80
2019-06-10T15:09:33.660Z,94.70
2019-06-10T15:12:02.807Z,94.80
2019-06-10T15:14:32.374Z,95.10
2019-06-10T15:16:59.360Z,95.40
2019-06-10T15:19:29.094Z,94.80
2019-06-10T15:21:55.802Z,94.80
2019-06-10T15:24:23.791Z,95.40
2019-06-10T15:27:08.483Z,95.50
2019-06-10T15:29:20.543Z,95.70
2019-06-10T15:32:02.553Z,96.40
2019-06-10T15:34:19.705Z,96.30
2019-06-10T15:36:46.470Z,96.10
2019-06-10T15:39:16.161Z,96.20
2019-06-10T15:42:03.011Z,96.80
2019-06-10T15:47:29.287Z,95.60
2019-06-10T15:49:56.333Z,95.60
2019-06-10T15:52:25.060Z,95.10
2019-06-10T15:55:14.910Z,95.20
2019-06-10T15:57:46.069Z,95.20
2019-06-10T16:00:16.634Z,95.60
2019-06-10T16:02:39.971Z,95.70
2019-06-10T16:05:08.195Z,95.80
2019-06-10T16:07:35.544Z,95.80
2019-06-10T16:10:08.834Z,95.90
2019-06-10T16:12:35.854Z,96.10
2019-06-10T16:15:26.074Z,96.00
2019-06-10T16:17:53.376Z,96.10
2019-06-10T16:20:21.425Z,96.00
2019-06-10T16:22:48.784Z,96.40
2019-06-10T16:25:35.538Z,96.60
2019-06-10T16:28:24.539Z,96.20
2019-06-10T16:30:53.775Z,96.40
2019-06-10T16:33:24.058Z,96.60
2019-06-10T16:35:50.199Z,96.60
2019-06-10T16:38:36.850Z,96.50
2019-06-10T16:41:04.517Z,96.20
2019-06-10T16:43:33.445Z,96.70
2019-06-10T16:46:03.061Z,96.30
2019-06-10T16:48:33.093Z,96.20
2019-06-10T16:50:59.139Z,96.10
2019-06-10T16:53:30.025Z,96.60
2019-06-10T16:55:56.181Z,96.40
2019-06-10T16:58:27.110Z,96.40
2019-06-10T17:00:54.026Z,96.40
2019-06-10T17:03:24.861Z,96.40
2019-06-10T17:05:53.091Z,96.70
2019-06-10T17:08:23.288Z,96.60
2019-06-10T17:10:49.173Z,96.80
2019-06-10T17:13:18.926Z,96.40
2019-06-10T17:15:46.354Z,96.50
2019-06-10T17:18:13.695Z,96.50
2019-06-10T17:20:42.998Z,96.40
2019-06-10T17:23:25.653Z,96.90
2019-06-10T17:25:53.301Z,96.90
2019-06-10T17:28:39.702Z,96.60
2019-06-10T17:31:06.740Z,96.70
2019-06-10T17:33:35.818Z,96.50
2019-06-10T17:36:03.628Z,96.70
2019-06-10T17:38:31.314Z,96.80
2019-06-10T17:40:59.763Z,96.60
2019-06-10T17:43:27.359Z,96.60
2019-06-10T17:45:54.540Z,96.80
2019-06-10T17:48:23.763Z,96.80
2019-06-10T17:50:52.448Z,96.70
2019-06-10T17:53:22.371Z,96.50
2019-06-10T17:56:03.305Z,96.80
2019-06-10T17:58:43.603Z,97.00
2019-06-10T18:01:02.119Z,96.90
2019-06-10T18:03:29.347Z,96.80
2019-06-10T18:05:57.292Z,97.00
2019-06-10T18:08:25.933Z,97.40
2019-06-10T18:11:12.944Z,97.00
2019-06-10T18:13:40.012Z,97.00
2019-06-10T18:16:07.159Z,96.70
2019-06-10T18:18:37.163Z,96.70
2019-06-10T18:21:03.588Z,96.80
2019-06-10T18:23:30.938Z,97.00
2019-06-10T18:25:58.164Z,97.10
2019-06-10T18:28:26.886Z,97.10
2019-06-10T18:30:54.466Z,96.90
2019-06-10T18:33:22.963Z,96.80
2019-06-10T18:35:53.014Z,96.80
2019-06-10T18:38:19.822Z,96.90
2019-06-10T18:40:46.894Z,97.00
2019-06-10T18:43:14.277Z,96.90
2019-06-10T18:46:03.224Z,97.30
2019-06-10T18:48:35.459Z,96.90
2019-06-10T18:51:00.759Z,97.20
2019-06-10T18:53:28.453Z,97.10
2019-06-10T18:55:55.585Z,97.10
2019-06-10T18:58:22.609Z,96.80
2019-06-10T19:01:00.781Z,96.90
2019-06-10T19:03:39.671Z,97.10
2019-06-10T19:06:06.907Z,96.80
2019-06-10T19:08:35.962Z,97.00
2019-06-10T19:11:03.283Z,97.30
2019-06-10T19:13:33.934Z,97.40
2019-06-10T19:16:02.380Z,97.40
2019-06-10T19:18:29.929Z,97.70
2019-06-10T19:21:16.838Z,97.20
2019-06-10T19:23:44.229Z,97.00
2019-06-10T19:26:13.434Z,97.50
2019-06-10T19:29:00.561Z,97.50
2019-06-10T19:31:27.753Z,97.20
2019-06-10T19:33:54.796Z,97.40
2019-06-10T19:36:23.121Z,97.40
2019-06-10T19:38:50.786Z,97.40
2019-06-10T19:41:17.938Z,97.40
2019-06-10T19:43:53.011Z,97.30
2019-06-10T19:46:20.772Z,97.30
2019-06-10T19:49:03.176Z,97.40
2019-06-10T19:51:27.738Z,97.60
2019-06-10T19:53:54.843Z,97.30
2019-06-10T19:56:24.216Z,97.40
2019-06-10T19:59:09.297Z,97.50
2019-06-10T20:01:39.384Z,97.60
2019-06-10T20:04:07.399Z,97.40
2019-06-10T20:06:35.710Z,97.50
2019-06-10T20:09:05.925Z,98.00
2019-06-10T20:11:34.058Z,97.80
2019-06-10T20:14:02.569Z,98.20
2019-06-10T20:16:29.812Z,98.30
2019-06-10T20:18:57.107Z,98.00
2019-06-10T20:21:24.987Z,98.00
2019-06-10T20:23:53.052Z,98.70
2019-06-10T20:26:22.423Z,98.30
2019-06-10T20:28:53.096Z,98.30
2019-06-10T20:31:18.759Z,98.20
2019-06-10T20:33:45.757Z,98.30
2019-06-10T20:36:21.244Z,98.40
2019-06-10T20:38:45.515Z,98.30
2019-06-10T20:41:12.720Z,98.50
2019-06-10T20:43:41.204Z,98.70
2019-06-10T20:46:09.284Z,98.20
2019-06-10T20:48:56.080Z,98.30
2019-06-10T20:51:26.917Z,98.10
2019-06-10T20:53:53.310Z,98.30
2019-06-10T20:56:41.085Z,98.30
2019-06-10T20:59:09.173Z,98.50
2019-06-10T21:01:36.770Z,98.50
2019-06-10T21:04:04.381Z,98.40
2019-06-10T21:06:32.688Z,98.80
2019-06-10T21:08:59.911Z,98.10
2019-06-10T21:11:27.068Z,98.20
2019-06-10T21:14:13.853Z,98.10
2019-06-10T21:16:41.951Z,98.50
2019-06-10T21:19:09.355Z,98.60
2019-06-10T21:21:36.525Z,98.30
2019-06-10T21:24:03.637Z,98.20
2019-06-10T21:26:54.301Z,98.50
2019-06-10T21:29:19.149Z,98.40
2019-06-10T21:31:48.498Z,98.30
2019-06-10T21:34:15.179Z,98.20
2019-06-10T21:36:43.340Z,98.40
2019-06-10T21:39:10.555Z,98.10
2019-06-10T21:41:37.733Z,98.40
2019-06-10T21:44:04.860Z,98.40
2019-06-10T21:46:32.598Z,98.80
2019-06-10T21:49:00.019Z,98.50
2019-06-10T21:51:27.396Z,98.60
2019-06-10T21:53:55.320Z,98.50
2019-06-10T21:56:22.756Z,98.60
2019-06-10T21:58:51.514Z,98.30
2019-06-10T22:01:19.401Z,98.40
2019-06-10T22:03:53.020Z,98.50
2019-06-10T22:06:16.542Z,98.50
2019-06-10T22:08:44.176Z,98.50
2019-06-10T22:11:13.463Z,98.90
2019-06-10T22:13:40.745Z,98.60
2019-06-10T22:16:07.684Z,99.00
2019-06-10T22:18:35.204Z,98.70
2019-06-10T22:21:02.881Z,98.80
2019-06-10T22:23:30.012Z,98.70
2019-06-10T22:26:16.562Z,98.60
2019-06-10T22:28:43.610Z,98.60
2019-06-10T22:31:19.046Z,98.90
2019-06-10T22:33:39.830Z,99.00
2019-06-10T22:36:12.912Z,98.40
2019-06-10T22:38:39.704Z,98.70
2019-06-10T22:41:07.154Z,98.60
2019-06-10T22:43:34.172Z,98.50
2019-06-10T22:46:03.772Z,98.60
2019-06-10T22:48:33.298Z,98.70
2019-06-10T22:51:00.096Z,98.80
2019-06-10T22:53:27.225Z,98.90
2019-06-10T22:55:56.184Z,98.70
2019-06-10T22:58:23.774Z,98.80
2019-06-10T23:00:53.237Z,98.60
2019-06-10T23:03:21.994Z,98.70
2019-06-10T23:05:50.288Z,98.90
2019-06-10T23:08:17.454Z,98.50
2019-06-10T23:10:44.492Z,98.60
2019-06-10T23:13:13.306Z,98.70
2019-06-10T23:15:42.896Z,98.70
2019-06-10T23:18:12.484Z,98.80
2019-06-10T23:20:39.279Z,98.80
2019-06-10T23:23:06.440Z,98.60
2019-06-10T23:25:33.486Z,98.60
2019-06-10T23:28:01.236Z,98.80
2019-06-10T23:30:48.174Z,99.00
2019-06-10T23:33:56.493Z,99.00
2019-06-10T23:36:24.084Z,98.70
2019-06-10T23:38:52.451Z,98.90
2019-06-10T23:41:22.155Z,98.90
2019-06-10T23:43:49.137Z,99.10
2019-06-10T23:46:16.089Z,98.90
2019-06-10T23:48:58.006Z,99.00
2019-06-10T23:51:24.941Z,99.00
2019-06-10T23:53:56.329Z,99.20
2019-06-10T23:56:22.108Z,99.20
2019-06-10T23:58:49.316Z,99.00
